sensor_id;sensor_type;location;lat;lon;timestamp;pressure;altitude;pressure_sealevel;temperature;humidity
37238;BME280;23129;49.662;8.448;2023-07-31T00:00:06;100558.44;;;19.78;74.43
37238;BME280;23129;49.662;8.448;2023-07-31T00:02:36;100556.69;;;19.77;74.68
37238;BME280;23129;49.662;8.448;2023-07-31T00:05:07;100569.28;;;19.75;75.10
37238;BME280;23129;49.662;8.448;2023-07-31T00:07:38;100557.00;;;19.72;74.86
37238;BME280;23129;49.662;8.448;2023-07-31T00:10:07;100562.41;;;19.71;75.17
37238;BME280;23129;49.662;8.448;2023-07-31T00:12:37;100561.56;;;19.70;74.69
37238;BME280;23129;49.662;8.448;2023-07-31T00:15:07;100554.44;;;19.71;74.49
37238;BME280;23129;49.662;8.448;2023-07-31T00:17:35;100557.28;;;19.68;74.97
37238;BME280;23129;49.662;8.448;2023-07-31T00:20:05;100546.63;;;19.68;74.70
37238;BME280;23129;49.662;8.448;2023-07-31T00:22:33;100554.53;;;19.69;74.36
37238;BME280;23129;49.662;8.448;2023-07-31T00:25:05;100555.41;;;19.70;74.67
37238;BME280;23129;49.662;8.448;2023-07-31T00:27:34;100544.75;;;19.70;74.59
37238;BME280;23129;49.662;8.448;2023-07-31T00:30:03;100559.00;;;19.69;74.68
37238;BME280;23129;49.662;8.448;2023-07-31T00:32:33;100551.03;;;19.69;74.54
37238;BME280;23129;49.662;8.448;2023-07-31T00:35:01;100557.28;;;19.68;74.36
37238;BME280;23129;49.662;8.448;2023-07-31T00:37:31;100551.13;;;19.67;74.78
37238;BME280;23129;49.662;8.448;2023-07-31T00:39:59;100548.56;;;19.66;74.66
37238;BME280;23129;49.662;8.448;2023-07-31T00:42:29;100546.84;;;19.65;74.33
37238;BME280;23129;49.662;8.448;2023-07-31T00:44:57;100543.41;;;19.63;74.85
37238;BME280;23129;49.662;8.448;2023-07-31T00:47:26;100534.66;;;19.60;74.83
37238;BME280;23129;49.662;8.448;2023-07-31T00:49:55;100531.22;;;19.58;74.84
37238;BME280;23129;49.662;8.448;2023-07-31T00:52:24;100542.84;;;19.57;74.73
37238;BME280;23129;49.662;8.448;2023-07-31T00:54:52;100529.53;;;19.57;74.81
37238;BME280;23129;49.662;8.448;2023-07-31T00:57:21;100521.75;;;19.54;75.14
37238;BME280;23129;49.662;8.448;2023-07-31T00:59:52;100528.03;;;19.53;74.93
37238;BME280;23129;49.662;8.448;2023-07-31T01:02:21;100539.72;;;19.51;75.23
37238;BME280;23129;49.662;8.448;2023-07-31T01:04:50;100526.31;;;19.52;75.22
37238;BME280;23129;49.662;8.448;2023-07-31T01:07:22;100528.03;;;19.53;74.91
37238;BME280;23129;49.662;8.448;2023-07-31T01:09:59;100526.31;;;19.52;74.41
37238;BME280;23129;49.662;8.448;2023-07-31T01:12:32;100540.56;;;19.51;75.24
37238;BME280;23129;49.662;8.448;2023-07-31T01:15:07;100530.97;;;19.49;75.33
37238;BME280;23129;49.662;8.448;2023-07-31T01:17:38;100529.28;;;19.48;75.33
37238;BME280;23129;49.662;8.448;2023-07-31T01:20:13;100527.47;;;19.48;75.56
37238;BME280;23129;49.662;8.448;2023-07-31T01:26:02;100523.06;;;19.47;75.28
37238;BME280;23129;49.662;8.448;2023-07-31T01:28:40;100524.81;;;19.48;75.56
37238;BME280;23129;49.662;8.448;2023-07-31T01:31:19;100526.50;;;19.49;75.31
37238;BME280;23129;49.662;8.448;2023-07-31T01:33:49;100517.75;;;19.47;75.71
37238;BME280;23129;49.662;8.448;2023-07-31T01:36:18;100523.19;;;19.46;76.13
37238;BME280;23129;49.662;8.448;2023-07-31T01:38:47;100526.69;;;19.46;76.00
37238;BME280;23129;49.662;8.448;2023-07-31T01:41:18;100515.22;;;19.46;75.93
37238;BME280;23129;49.662;8.448;2023-07-31T01:43:47;100516.91;;;19.47;75.76
37238;BME280;23129;49.662;8.448;2023-07-31T01:46:16;100519.56;;;19.47;75.98
37238;BME280;23129;49.662;8.448;2023-07-31T01:48:45;100516.06;;;19.46;76.29
37238;BME280;23129;49.662;8.448;2023-07-31T01:51:14;100514.38;;;19.45;76.30
37238;BME280;23129;49.662;8.448;2023-07-31T01:53:42;100507.31;;;19.44;76.19
37238;BME280;23129;49.662;8.448;2023-07-31T01:56:11;100510.94;;;19.43;76.15
37238;BME280;23129;49.662;8.448;2023-07-31T01:58:41;100498.59;;;19.42;76.22
37238;BME280;23129;49.662;8.448;2023-07-31T02:01:09;100498.78;;;19.39;76.14
37238;BME280;23129;49.662;8.448;2023-07-31T02:03:39;100497.25;;;19.35;76.14
37238;BME280;23129;49.662;8.448;2023-07-31T02:06:09;100496.72;;;19.30;76.28
37238;BME280;23129;49.662;8.448;2023-07-31T02:08:38;100499.78;;;19.24;76.65
37238;BME280;23129;49.662;8.448;2023-07-31T02:11:07;100500.16;;;19.18;77.09
37238;BME280;23129;49.662;8.448;2023-07-31T02:13:35;100504.78;;;19.14;77.38
37238;BME280;23129;49.662;8.448;2023-07-31T02:16:05;100488.19;;;19.10;77.58
37238;BME280;23129;49.662;8.448;2023-07-31T02:18:34;100489.22;;;19.08;77.74
37238;BME280;23129;49.662;8.448;2023-07-31T02:21:03;100486.00;;;19.03;78.01
37238;BME280;23129;49.662;8.448;2023-07-31T02:23:32;100483.25;;;19.04;78.10
37238;BME280;23129;49.662;8.448;2023-07-31T02:26:00;100482.47;;;19.02;78.45
37238;BME280;23129;49.662;8.448;2023-07-31T02:28:29;100477.28;;;19.01;78.79
37238;BME280;23129;49.662;8.448;2023-07-31T02:30:58;100473.00;;;18.98;79.07
37238;BME280;23129;49.662;8.448;2023-07-31T02:33:28;100475.75;;;18.97;79.13
37238;BME280;23129;49.662;8.448;2023-07-31T02:35:57;100470.53;;;18.95;79.51
37238;BME280;23129;49.662;8.448;2023-07-31T02:38:26;100464.44;;;18.93;79.75
37238;BME280;23129;49.662;8.448;2023-07-31T02:40:54;100469.03;;;18.91;79.93
37238;BME280;23129;49.662;8.448;2023-07-31T02:43:23;100462.94;;;18.89;80.16
37238;BME280;23129;49.662;8.448;2023-07-31T02:45:52;100467.47;;;18.87;80.42
37238;BME280;23129;49.662;8.448;2023-07-31T02:48:20;100456.00;;;18.86;80.15
37238;BME280;23129;49.662;8.448;2023-07-31T02:50:50;100465.78;;;18.86;80.34
37238;BME280;23129;49.662;8.448;2023-07-31T02:53:19;100467.69;;;18.84;80.49
37238;BME280;23129;49.662;8.448;2023-07-31T02:55:48;100470.44;;;18.82;80.58
37238;BME280;23129;49.662;8.448;2023-07-31T02:58:17;100461.63;;;18.82;80.29
37238;BME280;23129;49.662;8.448;2023-07-31T03:00:46;100470.34;;;18.84;80.15
37238;BME280;23129;49.662;8.448;2023-07-31T03:03:14;100463.13;;;18.86;79.63
37238;BME280;23129;49.662;8.448;2023-07-31T03:05:43;100465.59;;;18.89;79.59
37238;BME280;23129;49.662;8.448;2023-07-31T03:08:13;100454.00;;;18.90;79.34
37238;BME280;23129;49.662;8.448;2023-07-31T03:10:41;100466.56;;;18.88;79.76
37238;BME280;23129;49.662;8.448;2023-07-31T03:13:10;100458.59;;;18.88;79.96
37238;BME280;23129;49.662;8.448;2023-07-31T03:15:41;100456.13;;;18.85;80.09
37238;BME280;23129;49.662;8.448;2023-07-31T03:18:10;100461.63;;;18.82;80.72
37238;BME280;23129;49.662;8.448;2023-07-31T03:20:42;100466.94;;;18.82;80.63
37238;BME280;23129;49.662;8.448;2023-07-31T03:23:13;100472.34;;;18.80;80.60
37238;BME280;23129;49.662;8.448;2023-07-31T03:25:55;100474.16;;;18.80;80.54
37238;BME280;23129;49.662;8.448;2023-07-31T03:28:28;100468.91;;;18.78;80.60
37238;BME280;23129;49.662;8.448;2023-07-31T03:30:57;100469.00;;;18.77;80.82
37238;BME280;23129;49.662;8.448;2023-07-31T03:33:25;100462.84;;;18.76;81.04
37238;BME280;23129;49.662;8.448;2023-07-31T03:35:54;100465.59;;;18.75;80.82
37238;BME280;23129;49.662;8.448;2023-07-31T03:38:24;100465.75;;;18.71;80.91
37238;BME280;23129;49.662;8.448;2023-07-31T03:40:53;100457.00;;;18.69;81.28
37238;BME280;23129;49.662;8.448;2023-07-31T03:43:23;100456.34;;;18.66;81.37
37238;BME280;23129;49.662;8.448;2023-07-31T03:45:52;100456.53;;;18.63;81.31
37238;BME280;23129;49.662;8.448;2023-07-31T03:48:21;100455.88;;;18.59;81.93
37238;BME280;23129;49.662;8.448;2023-07-31T03:50:50;100459.50;;;18.58;81.60
37238;BME280;23129;49.662;8.448;2023-07-31T03:53:18;100462.34;;;18.55;81.94
37238;BME280;23129;49.662;8.448;2023-07-31T03:55:48;100456.25;;;18.53;82.28
37238;BME280;23129;49.662;8.448;2023-07-31T03:58:17;100451.13;;;18.50;82.58
37238;BME280;23129;49.662;8.448;2023-07-31T04:00:46;100450.47;;;18.46;82.82
37238;BME280;23129;49.662;8.448;2023-07-31T04:03:15;100463.81;;;18.45;82.99
37238;BME280;23129;49.662;8.448;2023-07-31T04:05:44;100461.16;;;18.45;83.06
37238;BME280;23129;49.662;8.448;2023-07-31T04:08:12;100460.41;;;18.43;83.46
37238;BME280;23129;49.662;8.448;2023-07-31T04:10:41;100459.53;;;18.42;83.24
37238;BME280;23129;49.662;8.448;2023-07-31T04:13:11;100457.78;;;18.43;83.61
37238;BME280;23129;49.662;8.448;2023-07-31T04:15:40;100460.41;;;18.43;83.59
37238;BME280;23129;49.662;8.448;2023-07-31T04:18:08;100453.38;;;18.42;83.66
37238;BME280;23129;49.662;8.448;2023-07-31T04:20:37;100449.78;;;18.43;83.89
37238;BME280;23129;49.662;8.448;2023-07-31T04:23:06;100457.00;;;18.41;83.72
37238;BME280;23129;49.662;8.448;2023-07-31T04:25:34;100448.06;;;18.42;83.90
37238;BME280;23129;49.662;8.448;2023-07-31T04:28:03;100445.41;;;18.42;83.90
37238;BME280;23129;49.662;8.448;2023-07-31T04:30:33;100446.38;;;18.41;84.20
37238;BME280;23129;49.662;8.448;2023-07-31T04:33:02;100446.38;;;18.41;84.16
37238;BME280;23129;49.662;8.448;2023-07-31T04:35:30;100456.16;;;18.40;84.13
37238;BME280;23129;49.662;8.448;2023-07-31T04:37:59;100450.84;;;18.40;84.10
37238;BME280;23129;49.662;8.448;2023-07-31T04:40:27;100456.03;;;18.42;84.19
37238;BME280;23129;49.662;8.448;2023-07-31T04:42:56;100453.38;;;18.42;84.54
37238;BME280;23129;49.662;8.448;2023-07-31T04:45:25;100446.19;;;18.44;84.51
37238;BME280;23129;49.662;8.448;2023-07-31T04:47:55;100453.13;;;18.46;84.26
37238;BME280;23129;49.662;8.448;2023-07-31T04:50:23;100438.03;;;18.47;84.36
37238;BME280;23129;49.662;8.448;2023-07-31T04:52:52;100444.13;;;18.49;84.09
37238;BME280;23129;49.662;8.448;2023-07-31T04:55:20;100447.50;;;18.51;84.15
37238;BME280;23129;49.662;8.448;2023-07-31T04:57:49;100450.94;;;18.53;84.21
37238;BME280;23129;49.662;8.448;2023-07-31T05:00:18;100455.22;;;18.56;84.39
37238;BME280;23129;49.662;8.448;2023-07-31T05:02:46;100450.56;;;18.59;84.29
37238;BME280;23129;49.662;8.448;2023-07-31T05:05:16;100445.06;;;18.62;84.06
37238;BME280;23129;49.662;8.448;2023-07-31T05:07:45;100445.72;;;18.66;83.92
37238;BME280;23129;49.662;8.448;2023-07-31T05:10:13;100444.50;;;18.71;83.78
37238;BME280;23129;49.662;8.448;2023-07-31T05:12:42;100446.06;;;18.76;83.32
37238;BME280;23129;49.662;8.448;2023-07-31T05:15:10;100439.03;;;18.75;83.22
37238;BME280;23129;49.662;8.448;2023-07-31T05:17:39;100446.91;;;18.76;83.47
37238;BME280;23129;49.662;8.448;2023-07-31T05:20:08;100447.75;;;18.77;83.38
37238;BME280;23129;49.662;8.448;2023-07-31T05:22:39;100449.47;;;18.78;83.12
37238;BME280;23129;49.662;8.448;2023-07-31T05:25:08;100452.97;;;18.78;83.06
37238;BME280;23129;49.662;8.448;2023-07-31T05:27:37;100440.44;;;18.80;82.96
37238;BME280;23129;49.662;8.448;2023-07-31T05:30:06;100441.09;;;18.84;82.84
37238;BME280;23129;49.662;8.448;2023-07-31T05:32:35;100440.91;;;18.87;82.69
37238;BME280;23129;49.662;8.448;2023-07-31T05:35:04;100446.03;;;18.90;82.34
37238;BME280;23129;49.662;8.448;2023-07-31T05:37:33;100436.81;;;18.96;82.32
37238;BME280;23129;49.662;8.448;2023-07-31T05:40:04;100433.78;;;19.02;81.88
37238;BME280;23129;49.662;8.448;2023-07-31T05:42:33;100434.22;;;19.08;81.56
37238;BME280;23129;49.662;8.448;2023-07-31T05:45:02;100441.66;;;19.18;81.03
37238;BME280;23129;49.662;8.448;2023-07-31T05:47:31;100439.34;;;19.26;81.26
37238;BME280;23129;49.662;8.448;2023-07-31T05:49:59;100442.38;;;19.34;81.26
37238;BME280;23129;49.662;8.448;2023-07-31T05:52:28;100434.75;;;19.42;81.11
37238;BME280;23129;49.662;8.448;2023-07-31T05:54:57;100440.53;;;19.49;80.52
37238;BME280;23129;49.662;8.448;2023-07-31T05:57:27;100434.72;;;19.56;80.70
37238;BME280;23129;49.662;8.448;2023-07-31T05:59:55;100432.56;;;19.61;79.88
37238;BME280;23129;49.662;8.448;2023-07-31T06:02:24;100420.84;;;19.66;79.64
37238;BME280;23129;49.662;8.448;2023-07-31T06:04:53;100424.00;;;19.71;79.59
37238;BME280;23129;49.662;8.448;2023-07-31T06:07:21;100418.69;;;19.71;79.10
37238;BME280;23129;49.662;8.448;2023-07-31T06:09:50;100418.69;;;19.71;79.20
37238;BME280;23129;49.662;8.448;2023-07-31T06:12:18;100412.53;;;19.70;78.98
37238;BME280;23129;49.662;8.448;2023-07-31T06:14:48;100421.28;;;19.72;79.18
37238;BME280;23129;49.662;8.448;2023-07-31T06:17:16;100411.06;;;19.79;78.78
37238;BME280;23129;49.662;8.448;2023-07-31T06:19:45;100415.75;;;19.88;78.94
37238;BME280;23129;49.662;8.448;2023-07-31T06:22:13;100414.41;;;19.95;78.48
37238;BME280;23129;49.662;8.448;2023-07-31T06:24:42;100422.63;;;20.05;78.02
37238;BME280;23129;49.662;8.448;2023-07-31T06:27:10;100400.69;;;20.14;77.42
37238;BME280;23129;49.662;8.448;2023-07-31T06:29:39;100408.91;;;20.24;77.45
37238;BME280;23129;49.662;8.448;2023-07-31T06:32:09;100403.91;;;20.32;77.29
37238;BME280;23129;49.662;8.448;2023-07-31T06:34:38;100397.19;;;20.39;76.87
37238;BME280;23129;49.662;8.448;2023-07-31T06:37:06;100404.22;;;20.40;76.36
37238;BME280;23129;49.662;8.448;2023-07-31T06:39:35;100401.56;;;20.40;76.22
37238;BME280;23129;49.662;8.448;2023-07-31T06:42:05;100405.16;;;20.39;75.90
37238;BME280;23129;49.662;8.448;2023-07-31T06:44:34;100410.72;;;20.36;76.21
37238;BME280;23129;49.662;8.448;2023-07-31T06:47:03;100416.03;;;20.36;76.35
37238;BME280;23129;49.662;8.448;2023-07-31T06:49:36;100415.81;;;20.39;75.73
37238;BME280;23129;49.662;8.448;2023-07-31T06:52:05;100413.91;;;20.41;75.62
37238;BME280;23129;49.662;8.448;2023-07-31T06:54:33;100413.69;;;20.44;75.54
37238;BME280;23129;49.662;8.448;2023-07-31T06:57:02;100419.03;;;20.44;75.52
37238;BME280;23129;49.662;8.448;2023-07-31T06:59:31;100411.41;;;20.52;74.97
37238;BME280;23129;49.662;8.448;2023-07-31T07:02:00;100416.28;;;20.59;75.45
37238;BME280;23129;49.662;8.448;2023-07-31T07:04:32;100425.47;;;20.67;75.12
37238;BME280;23129;49.662;8.448;2023-07-31T07:07:03;100413.31;;;20.76;74.64
37238;BME280;23129;49.662;8.448;2023-07-31T07:09:31;100415.31;;;20.85;74.38
37238;BME280;23129;49.662;8.448;2023-07-31T07:12:00;100403.22;;;20.92;73.65
37238;BME280;23129;49.662;8.448;2023-07-31T07:14:29;100428.59;;;20.98;73.56
37238;BME280;23129;49.662;8.448;2023-07-31T07:16:57;100406.22;;;21.01;73.51
37238;BME280;23129;49.662;8.448;2023-07-31T07:19:26;100412.16;;;21.04;73.30
37238;BME280;23129;49.662;8.448;2023-07-31T07:21:55;100414.25;;;21.12;73.44
37238;BME280;23129;49.662;8.448;2023-07-31T07:24:25;100407.53;;;21.19;73.19
37238;BME280;23129;49.662;8.448;2023-07-31T07:26:54;100395.66;;;21.23;73.23
37238;BME280;23129;49.662;8.448;2023-07-31T07:29:22;100395.44;;;21.39;73.09
37238;BME280;23129;49.662;8.448;2023-07-31T07:31:51;100401.41;;;21.42;72.61
37238;BME280;23129;49.662;8.448;2023-07-31T07:34:22;100408.19;;;21.47;72.77
37238;BME280;23129;49.662;8.448;2023-07-31T07:36:50;100400.19;;;21.47;72.94
37238;BME280;23129;49.662;8.448;2023-07-31T07:39:19;100407.50;;;21.56;72.79
37238;BME280;23129;49.662;8.448;2023-07-31T07:41:49;100382.69;;;21.67;71.64
37238;BME280;23129;49.662;8.448;2023-07-31T07:44:17;100384.72;;;21.87;71.52
37238;BME280;23129;49.662;8.448;2023-07-31T07:46:46;100382.00;;;22.22;70.14
37238;BME280;23129;49.662;8.448;2023-07-31T07:49:15;100372.91;;;22.25;69.14
37238;BME280;23129;49.662;8.448;2023-07-31T07:51:43;100385.13;;;22.16;69.20
37238;BME280;23129;49.662;8.448;2023-07-31T07:54:12;100383.00;;;22.21;69.58
37238;BME280;23129;49.662;8.448;2023-07-31T07:56:41;100373.53;;;22.28;69.49
37238;BME280;23129;49.662;8.448;2023-07-31T07:59:10;100383.72;;;22.34;68.55
37238;BME280;23129;49.662;8.448;2023-07-31T08:01:39;100365.28;;;22.43;68.07
37238;BME280;23129;49.662;8.448;2023-07-31T08:04:07;100375.75;;;22.68;67.04
37238;BME280;23129;49.662;8.448;2023-07-31T08:06:36;100375.84;;;22.89;65.96
37238;BME280;23129;49.662;8.448;2023-07-31T08:09:05;100375.72;;;22.91;65.55
37238;BME280;23129;49.662;8.448;2023-07-31T08:11:34;100360.28;;;22.94;65.71
37238;BME280;23129;49.662;8.448;2023-07-31T08:14:02;100361.44;;;23.24;65.47
37238;BME280;23129;49.662;8.448;2023-07-31T08:16:32;100357.56;;;23.60;64.82
37238;BME280;23129;49.662;8.448;2023-07-31T08:19:01;100359.28;;;24.03;64.30
37238;BME280;23129;49.662;8.448;2023-07-31T08:21:30;100355.59;;;24.25;62.86
37238;BME280;23129;49.662;8.448;2023-07-31T08:23:59;100340.63;;;24.23;62.56
37238;BME280;23129;49.662;8.448;2023-07-31T08:26:28;100339.22;;;24.49;62.15
37238;BME280;23129;49.662;8.448;2023-07-31T08:28:56;100315.59;;;24.74;60.78
37238;BME280;23129;49.662;8.448;2023-07-31T08:31:26;100324.97;;;24.89;59.94
37238;BME280;23129;49.662;8.448;2023-07-31T08:33:58;100333.13;;;24.88;59.13
37238;BME280;23129;49.662;8.448;2023-07-31T08:36:26;100316.75;;;24.81;59.05
37238;BME280;23129;49.662;8.448;2023-07-31T08:38:57;100313.09;;;24.92;58.98
37238;BME280;23129;49.662;8.448;2023-07-31T08:41:25;100320.75;;;25.06;58.24
37238;BME280;23129;49.662;8.448;2023-07-31T08:43:55;100309.88;;;25.08;57.49
37238;BME280;23129;49.662;8.448;2023-07-31T08:46:25;100320.16;;;24.83;58.49
37238;BME280;23129;49.662;8.448;2023-07-31T08:48:54;100318.41;;;24.63;58.34
37238;BME280;23129;49.662;8.448;2023-07-31T08:51:27;100327.34;;;24.42;59.36
37238;BME280;23129;49.662;8.448;2023-07-31T08:53:56;100313.69;;;24.24;59.50
37238;BME280;23129;49.662;8.448;2023-07-31T08:56:25;100306.75;;;24.22;59.16
37238;BME280;23129;49.662;8.448;2023-07-31T08:58:54;100304.47;;;24.38;59.63
37238;BME280;23129;49.662;8.448;2023-07-31T09:01:24;100310.78;;;24.68;58.44
37238;BME280;23129;49.662;8.448;2023-07-31T09:03:53;100297.06;;;24.61;59.24
37238;BME280;23129;49.662;8.448;2023-07-31T09:06:26;100282.53;;;24.64;58.77
37238;BME280;23129;49.662;8.448;2023-07-31T09:08:57;100302.72;;;24.68;58.91
37238;BME280;23129;49.662;8.448;2023-07-31T09:11:26;100306.56;;;24.75;58.48
37238;BME280;23129;49.662;8.448;2023-07-31T09:13:57;100324.03;;;24.59;59.51
37238;BME280;23129;49.662;8.448;2023-07-31T09:16:29;100308.50;;;24.53;59.35
37238;BME280;23129;49.662;8.448;2023-07-31T09:18:59;100323.84;;;24.51;59.97
37238;BME280;23129;49.662;8.448;2023-07-31T09:21:30;100284.22;;;24.65;58.89
37238;BME280;23129;49.662;8.448;2023-07-31T09:23:59;100290.00;;;24.60;58.64
37238;BME280;23129;49.662;8.448;2023-07-31T09:26:32;100297.66;;;24.34;58.39
37238;BME280;23129;49.662;8.448;2023-07-31T09:29:01;100289.41;;;24.26;58.88
37238;BME280;23129;49.662;8.448;2023-07-31T09:31:33;100315.72;;;24.11;59.67
37238;BME280;23129;49.662;8.448;2023-07-31T09:34:02;100295.25;;;24.00;60.22
37238;BME280;23129;49.662;8.448;2023-07-31T09:36:31;100282.75;;;23.89;59.99
37238;BME280;23129;49.662;8.448;2023-07-31T09:39:02;100286.75;;;23.95;60.15
37238;BME280;23129;49.662;8.448;2023-07-31T09:41:31;100288.97;;;23.90;60.91
37238;BME280;23129;49.662;8.448;2023-07-31T09:44:04;100284.75;;;23.87;61.74
37238;BME280;23129;49.662;8.448;2023-07-31T09:46:35;100286.75;;;23.95;61.40
37238;BME280;23129;49.662;8.448;2023-07-31T09:49:06;100281.75;;;24.11;61.29
37238;BME280;23129;49.662;8.448;2023-07-31T09:51:38;100281.53;;;24.24;60.95
37238;BME280;23129;49.662;8.448;2023-07-31T09:54:11;100272.16;;;24.09;59.71
37238;BME280;23129;49.662;8.448;2023-07-31T09:56:43;100256.81;;;23.90;60.13
37238;BME280;23129;49.662;8.448;2023-07-31T09:59:14;100276.81;;;23.86;60.41
37238;BME280;23129;49.662;8.448;2023-07-31T10:01:44;100265.03;;;23.98;59.69
37238;BME280;23129;49.662;8.448;2023-07-31T10:04:14;100252.13;;;24.13;59.43
37238;BME280;23129;49.662;8.448;2023-07-31T10:06:46;100249.13;;;24.37;58.75
37238;BME280;23129;49.662;8.448;2023-07-31T10:09:16;100250.06;;;24.67;58.35
37238;BME280;23129;49.662;8.448;2023-07-31T10:11:50;100237.78;;;24.74;57.56
37238;BME280;23129;49.662;8.448;2023-07-31T10:14:24;100250.41;;;24.83;57.61
37238;BME280;23129;49.662;8.448;2023-07-31T10:16:55;100225.13;;;24.95;56.98
37238;BME280;23129;49.662;8.448;2023-07-31T10:19:27;100226.97;;;25.04;56.22
37238;BME280;23129;49.662;8.448;2023-07-31T10:22:00;100219.03;;;25.13;55.78
37238;BME280;23129;49.662;8.448;2023-07-31T10:24:31;100235.00;;;25.04;56.06
37238;BME280;23129;49.662;8.448;2023-07-31T10:27:02;100226.25;;;24.93;55.74
37238;BME280;23129;49.662;8.448;2023-07-31T10:29:31;100217.59;;;24.79;55.74
37238;BME280;23129;49.662;8.448;2023-07-31T10:32:00;100237.66;;;24.66;56.46
37238;BME280;23129;49.662;8.448;2023-07-31T10:34:30;100242.72;;;24.59;56.24
37238;BME280;23129;49.662;8.448;2023-07-31T10:37:21;100232.25;;;24.46;55.81
37238;BME280;23129;49.662;8.448;2023-07-31T10:39:58;100267.81;;;24.48;56.58
37238;BME280;23129;49.662;8.448;2023-07-31T10:42:31;100245.94;;;24.53;55.41
37238;BME280;23129;49.662;8.448;2023-07-31T10:45:04;100254.31;;;24.59;55.30
37238;BME280;23129;49.662;8.448;2023-07-31T10:47:37;100241.03;;;24.58;55.46
37238;BME280;23129;49.662;8.448;2023-07-31T10:50:27;100242.41;;;24.52;54.64
37238;BME280;23129;49.662;8.448;2023-07-31T10:52:58;100246.81;;;24.53;55.48
37238;BME280;23129;49.662;8.448;2023-07-31T10:55:30;100232.84;;;24.59;55.60
37238;BME280;23129;49.662;8.448;2023-07-31T10:58:06;100226.94;;;24.66;55.25
37238;BME280;23129;49.662;8.448;2023-07-31T11:00:37;100252.31;;;24.62;55.41
37238;BME280;23129;49.662;8.448;2023-07-31T11:03:08;100231.13;;;24.49;55.79
37238;BME280;23129;49.662;8.448;2023-07-31T11:05:51;100218.06;;;24.34;56.47
37238;BME280;23129;49.662;8.448;2023-07-31T11:08:24;100212.13;;;24.31;56.78
37238;BME280;23129;49.662;8.448;2023-07-31T11:11:06;100227.06;;;24.24;56.94
37238;BME280;23129;49.662;8.448;2023-07-31T11:13:41;100211.81;;;24.14;57.25
37238;BME280;23129;49.662;8.448;2023-07-31T11:16:11;100228.72;;;24.05;57.87
37238;BME280;23129;49.662;8.448;2023-07-31T11:18:41;100222.09;;;23.79;59.10
37238;BME280;23129;49.662;8.448;2023-07-31T11:21:13;100227.56;;;23.56;59.86
37238;BME280;23129;49.662;8.448;2023-07-31T11:23:46;100226.50;;;23.27;61.09
37238;BME280;23129;49.662;8.448;2023-07-31T11:26:15;100220.50;;;23.13;61.59
37238;BME280;23129;49.662;8.448;2023-07-31T11:28:47;100228.69;;;22.57;64.75
37238;BME280;23129;49.662;8.448;2023-07-31T11:31:16;100224.63;;;22.08;67.23
37238;BME280;23129;49.662;8.448;2023-07-31T11:33:46;100216.69;;;21.95;68.49
37238;BME280;23129;49.662;8.448;2023-07-31T11:36:15;100217.34;;;21.99;69.05
37238;BME280;23129;49.662;8.448;2023-07-31T11:38:46;100206.16;;;22.05;69.49
37238;BME280;23129;49.662;8.448;2023-07-31T11:41:16;100207.09;;;22.15;69.33
37238;BME280;23129;49.662;8.448;2023-07-31T11:43:46;100204.47;;;22.26;69.45
37238;BME280;23129;49.662;8.448;2023-07-31T11:46:15;100182.94;;;22.39;69.14
37238;BME280;23129;49.662;8.448;2023-07-31T11:48:44;100187.16;;;22.53;68.76
37238;BME280;23129;49.662;8.448;2023-07-31T11:51:14;100194.88;;;22.67;68.13
37238;BME280;23129;49.662;8.448;2023-07-31T11:53:47;100182.94;;;22.83;67.30
37238;BME280;23129;49.662;8.448;2023-07-31T11:56:20;100183.09;;;23.02;66.06
37238;BME280;23129;49.662;8.448;2023-07-31T11:58:51;100170.13;;;23.18;65.02
37238;BME280;23129;49.662;8.448;2023-07-31T12:01:21;100169.53;;;23.36;64.57
37238;BME280;23129;49.662;8.448;2023-07-31T12:03:51;100188.38;;;23.55;63.91
37238;BME280;23129;49.662;8.448;2023-07-31T12:06:20;100160.31;;;23.71;63.09
37238;BME280;23129;49.662;8.448;2023-07-31T12:08:50;100173.88;;;23.79;62.61
37238;BME280;23129;49.662;8.448;2023-07-31T12:11:19;100162.78;;;23.93;61.60
37238;BME280;23129;49.662;8.448;2023-07-31T12:13:47;100165.25;;;24.06;60.97
37238;BME280;23129;49.662;8.448;2023-07-31T12:16:16;100175.16;;;24.25;60.30
37238;BME280;23129;49.662;8.448;2023-07-31T12:18:45;100164.50;;;24.44;59.43
37238;BME280;23129;49.662;8.448;2023-07-31T12:21:17;100175.69;;;24.59;58.41
37238;BME280;23129;49.662;8.448;2023-07-31T12:23:51;100145.03;;;24.62;58.63
37238;BME280;23129;49.662;8.448;2023-07-31T12:26:20;100150.53;;;24.60;58.70
37238;BME280;23129;49.662;8.448;2023-07-31T12:28:53;100144.19;;;24.51;58.95
37238;BME280;23129;49.662;8.448;2023-07-31T12:31:22;100146.97;;;24.40;59.45
37238;BME280;23129;49.662;8.448;2023-07-31T12:33:51;100142.16;;;24.24;59.69
37238;BME280;23129;49.662;8.448;2023-07-31T12:36:22;100150.28;;;24.13;59.57
37238;BME280;23129;49.662;8.448;2023-07-31T12:38:52;100140.56;;;24.02;60.05
37238;BME280;23129;49.662;8.448;2023-07-31T12:41:21;100147.41;;;23.95;60.40
37238;BME280;23129;49.662;8.448;2023-07-31T12:43:49;100131.22;;;23.97;59.56
37238;BME280;23129;49.662;8.448;2023-07-31T12:46:18;100123.75;;;24.00;59.46
37238;BME280;23129;49.662;8.448;2023-07-31T12:48:46;100129.69;;;24.13;59.21
37238;BME280;23129;49.662;8.448;2023-07-31T12:51:15;100126.78;;;24.36;59.01
37238;BME280;23129;49.662;8.448;2023-07-31T12:53:44;100128.66;;;24.55;58.77
37238;BME280;23129;49.662;8.448;2023-07-31T12:56:13;100110.88;;;24.64;58.23
37238;BME280;23129;49.662;8.448;2023-07-31T12:58:42;100108.06;;;24.75;58.63
37238;BME280;23129;49.662;8.448;2023-07-31T13:01:10;100115.81;;;24.88;58.41
37238;BME280;23129;49.662;8.448;2023-07-31T13:03:39;100096.31;;;24.95;58.35
37238;BME280;23129;49.662;8.448;2023-07-31T13:06:08;100101.19;;;25.10;57.48